sensor_id;sensor_type;location;lat;lon;timestamp;P1;durP1;ratioP1;P2;durP2;ratioP2
20731;SDS011;10527;52.124;5.196;2023-09-08T00:01:36;5.50;;;4.22;;
20731;SDS011;10527;52.124;5.196;2023-09-08T00:04:03;5.40;;;4.53;;
20731;SDS011;10527;52.124;5.196;2023-09-08T00:06:30;6.50;;;4.22;;
20731;SDS011;10527;52.124;5.196;2023-09-08T00:08:57;6.28;;;4.68;;
20731;SDS011;10527;52.124;5.196;2023-09-08T00:11:24;5.43;;;4.05;;
20731;SDS011;10527;52.124;5.196;2023-09-08T00:13:53;5.78;;;4.10;;
20731;SDS011;10527;52.124;5.196;2023-09-08T00:16:26;5.88;;;4.32;;
20731;SDS011;10527;52.124;5.196;2023-09-08T00:18:56;5.50;;;4.55;;
20731;SDS011;10527;52.124;5.196;2023-09-08T00:21:26;5.93;;;4.15;;
20731;SDS011;10527;52.124;5.196;2023-09-08T00:23:53;5.70;;;4.60;;
20731;SDS011;10527;52.124;5.196;2023-09-08T00:26:20;4.53;;;4.00;;
20731;SDS011;10527;52.124;5.196;2023-09-08T00:28:47;6.95;;;3.97;;
20731;SDS011;10527;52.124;5.196;2023-09-08T00:31:20;6.45;;;4.40;;
20731;SDS011;10527;52.124;5.196;2023-09-08T00:33:55;4.75;;;3.75;;
20731;SDS011;10527;52.124;5.196;2023-09-08T00:36:22;4.68;;;3.95;;
20731;SDS011;10527;52.124;5.196;2023-09-08T00:38:49;4.47;;;3.85;;
20731;SDS011;10527;52.124;5.196;2023-09-08T00:41:19;4.32;;;3.53;;
20731;SDS011;10527;52.124;5.196;2023-09-08T00:43:49;4.78;;;3.83;;
20731;SDS011;10527;52.124;5.196;2023-09-08T00:46:17;5.40;;;4.15;;
20731;SDS011;10527;52.124;5.196;2023-09-08T00:48:44;5.65;;;4.32;;
20731;SDS011;10527;52.124;5.196;2023-09-08T00:51:14;5.25;;;4.13;;
20731;SDS011;10527;52.124;5.196;2023-09-08T00:53:41;5.57;;;4.22;;
20731;SDS011;10527;52.124;5.196;2023-09-08T00:56:09;6.57;;;4.78;;
20731;SDS011;10527;52.124;5.196;2023-09-08T00:58:41;4.72;;;4.22;;
20731;SDS011;10527;52.124;5.196;2023-09-08T01:01:08;5.53;;;4.13;;
20731;SDS011;10527;52.124;5.196;2023-09-08T01:03:37;5.43;;;3.97;;
20731;SDS011;10527;52.124;5.196;2023-09-08T01:06:12;4.70;;;4.13;;
20731;SDS011;10527;52.124;5.196;2023-09-08T01:08:47;5.55;;;4.20;;
20731;SDS011;10527;52.124;5.196;2023-09-08T01:11:15;4.78;;;4.18;;
20731;SDS011;10527;52.124;5.196;2023-09-08T01:13:45;5.00;;;4.35;;
20731;SDS011;10527;52.124;5.196;2023-09-08T01:16:15;7.82;;;4.40;;
20731;SDS011;10527;52.124;5.196;2023-09-08T01:18:43;5.03;;;3.88;;
20731;SDS011;10527;52.124;5.196;2023-09-08T01:26:57;5.75;;;4.20;;
20731;SDS011;10527;52.124;5.196;2023-09-08T01:29:28;5.45;;;4.32;;
20731;SDS011;10527;52.124;5.196;2023-09-08T01:31:56;6.32;;;4.28;;
20731;SDS011;10527;52.124;5.196;2023-09-08T01:34:23;5.75;;;4.72;;
20731;SDS011;10527;52.124;5.196;2023-09-08T01:36:50;6.93;;;5.13;;
20731;SDS011;10527;52.124;5.196;2023-09-08T01:39:17;6.03;;;4.10;;
20731;SDS011;10527;52.124;5.196;2023-09-08T01:41:47;6.70;;;4.28;;
20731;SDS011;10527;52.124;5.196;2023-09-08T01:44:16;6.60;;;4.50;;
20731;SDS011;10527;52.124;5.196;2023-09-08T01:46:43;4.78;;;4.10;;
20731;SDS011;10527;52.124;5.196;2023-09-08T01:49:10;4.95;;;4.22;;
20731;SDS011;10527;52.124;5.196;2023-09-08T01:51:37;4.68;;;3.63;;
20731;SDS011;10527;52.124;5.196;2023-09-08T01:54:04;5.07;;;4.22;;
20731;SDS011;10527;52.124;5.196;2023-09-08T01:56:31;5.47;;;4.05;;
20731;SDS011;10527;52.124;5.196;2023-09-08T01:58:58;6.25;;;4.28;;
20731;SDS011;10527;52.124;5.196;2023-09-08T02:01:28;7.43;;;4.78;;
20731;SDS011;10527;52.124;5.196;2023-09-08T02:04:00;5.30;;;4.47;;
20731;SDS011;10527;52.124;5.196;2023-09-08T02:06:27;4.65;;;4.15;;
20731;SDS011;10527;52.124;5.196;2023-09-08T02:08:57;4.43;;;3.67;;
20731;SDS011;10527;52.124;5.196;2023-09-08T02:11:24;4.63;;;4.00;;
20731;SDS011;10527;52.124;5.196;2023-09-08T02:13:51;7.20;;;4.10;;
20731;SDS011;10527;52.124;5.196;2023-09-08T02:16:21;4.93;;;4.25;;
20731;SDS011;10527;52.124;5.196;2023-09-08T02:18:50;6.45;;;4.75;;
20731;SDS011;10527;52.124;5.196;2023-09-08T02:21:17;4.55;;;3.95;;
20731;SDS011;10527;52.124;5.196;2023-09-08T02:23:44;6.03;;;5.22;;
20731;SDS011;10527;52.124;5.196;2023-09-08T02:26:11;7.95;;;4.55;;
20731;SDS011;10527;52.124;5.196;2023-09-08T02:28:38;5.47;;;3.95;;
20731;SDS011;10527;52.124;5.196;2023-09-08T02:31:05;6.88;;;4.45;;
20731;SDS011;10527;52.124;5.196;2023-09-08T02:33:32;5.60;;;4.50;;
20731;SDS011;10527;52.124;5.196;2023-09-08T02:36:05;5.68;;;4.43;;
20731;SDS011;10527;52.124;5.196;2023-09-08T02:38:32;5.88;;;4.90;;
20731;SDS011;10527;52.124;5.196;2023-09-08T02:41:02;4.45;;;4.05;;
20731;SDS011;10527;52.124;5.196;2023-09-08T02:43:29;6.53;;;5.30;;
20731;SDS011;10527;52.124;5.196;2023-09-08T02:45:56;5.47;;;3.88;;
20731;SDS011;10527;52.124;5.196;2023-09-08T02:48:24;4.82;;;4.32;;
20731;SDS011;10527;52.124;5.196;2023-09-08T02:50:51;6.30;;;4.18;;
20731;SDS011;10527;52.124;5.196;2023-09-08T02:53:19;5.25;;;4.40;;
20731;SDS011;10527;52.124;5.196;2023-09-08T02:55:46;4.78;;;4.35;;
20731;SDS011;10527;52.124;5.196;2023-09-08T02:58:13;5.35;;;4.32;;
20731;SDS011;10527;52.124;5.196;2023-09-08T03:00:40;5.80;;;4.88;;
20731;SDS011;10527;52.124;5.196;2023-09-08T03:03:10;5.50;;;4.40;;
20731;SDS011;10527;52.124;5.196;2023-09-08T03:05:37;6.50;;;4.50;;
20731;SDS011;10527;52.124;5.196;2023-09-08T03:08:06;5.68;;;4.45;;
20731;SDS011;10527;52.124;5.196;2023-09-08T03:10:33;5.47;;;4.53;;
20731;SDS011;10527;52.124;5.196;2023-09-08T03:13:00;5.63;;;4.35;;
20731;SDS011;10527;52.124;5.196;2023-09-08T03:15:28;6.55;;;4.57;;
20731;SDS011;10527;52.124;5.196;2023-09-08T03:17:55;5.55;;;4.70;;
20731;SDS011;10527;52.124;5.196;2023-09-08T03:20:27;5.38;;;4.53;;
20731;SDS011;10527;52.124;5.196;2023-09-08T03:22:54;5.57;;;4.78;;
20731;SDS011;10527;52.124;5.196;2023-09-08T03:25:21;5.70;;;4.50;;
20731;SDS011;10527;52.124;5.196;2023-09-08T03:27:48;5.07;;;4.15;;
20731;SDS011;10527;52.124;5.196;2023-09-08T03:30:15;5.15;;;4.05;;
20731;SDS011;10527;52.124;5.196;2023-09-08T03:32:45;7.60;;;4.97;;
20731;SDS011;10527;52.124;5.196;2023-09-08T03:35:12;6.80;;;5.40;;
20731;SDS011;10527;52.124;5.196;2023-09-08T03:37:39;6.72;;;4.80;;
20731;SDS011;10527;52.124;5.196;2023-09-08T03:40:06;6.05;;;4.90;;
20731;SDS011;10527;52.124;5.196;2023-09-08T03:42:33;5.55;;;4.85;;
20731;SDS011;10527;52.124;5.196;2023-09-08T03:45:01;6.05;;;4.80;;
20731;SDS011;10527;52.124;5.196;2023-09-08T03:47:27;7.05;;;4.88;;
20731;SDS011;10527;52.124;5.196;2023-09-08T03:49:54;5.70;;;5.00;;
20731;SDS011;10527;52.124;5.196;2023-09-08T03:52:21;7.72;;;5.22;;
20731;SDS011;10527;52.124;5.196;2023-09-08T03:54:49;6.88;;;4.93;;
20731;SDS011;10527;52.124;5.196;2023-09-08T03:57:16;6.88;;;5.88;;
20731;SDS011;10527;52.124;5.196;2023-09-08T03:59:43;5.95;;;5.30;;
20731;SDS011;10527;52.124;5.196;2023-09-08T04:02:10;5.75;;;4.90;;
20731;SDS011;10527;52.124;5.196;2023-09-08T04:04:37;5.82;;;5.03;;
20731;SDS011;10527;52.124;5.196;2023-09-08T04:07:04;7.10;;;4.93;;
20731;SDS011;10527;52.124;5.196;2023-09-08T04:09:30;5.05;;;4.55;;
20731;SDS011;10527;52.124;5.196;2023-09-08T04:11:58;7.97;;;5.55;;
20731;SDS011;10527;52.124;5.196;2023-09-08T04:14:28;7.22;;;5.43;;
20731;SDS011;10527;52.124;5.196;2023-09-08T04:16:58;7.65;;;5.68;;
20731;SDS011;10527;52.124;5.196;2023-09-08T04:19:25;6.95;;;5.30;;
20731;SDS011;10527;52.124;5.196;2023-09-08T04:21:55;5.45;;;4.70;;
20731;SDS011;10527;52.124;5.196;2023-09-08T04:24:25;7.28;;;5.43;;
20731;SDS011;10527;52.124;5.196;2023-09-08T04:26:52;7.30;;;5.38;;
20731;SDS011;10527;52.124;5.196;2023-09-08T04:29:18;6.65;;;5.25;;
20731;SDS011;10527;52.124;5.196;2023-09-08T04:31:45;5.75;;;5.15;;
20731;SDS011;10527;52.124;5.196;2023-09-08T04:34:12;7.75;;;5.97;;
20731;SDS011;10527;52.124;5.196;2023-09-08T04:36:41;7.15;;;5.78;;
20731;SDS011;10527;52.124;5.196;2023-09-08T04:39:08;6.53;;;5.50;;
20731;SDS011;10527;52.124;5.196;2023-09-08T04:41:37;8.45;;;5.50;;
20731;SDS011;10527;52.124;5.196;2023-09-08T04:44:04;5.80;;;5.22;;
20731;SDS011;10527;52.124;5.196;2023-09-08T04:46:35;6.40;;;5.00;;
20731;SDS011;10527;52.124;5.196;2023-09-08T04:49:02;7.65;;;6.07;;
20731;SDS011;10527;52.124;5.196;2023-09-08T04:51:31;5.90;;;5.30;;
20731;SDS011;10527;52.124;5.196;2023-09-08T04:53:58;6.35;;;5.40;;
20731;SDS011;10527;52.124;5.196;2023-09-08T04:56:27;7.05;;;6.00;;
20731;SDS011;10527;52.124;5.196;2023-09-08T04:58:54;6.70;;;5.93;;
20731;SDS011;10527;52.124;5.196;2023-09-08T05:01:22;7.95;;;5.43;;
20731;SDS011;10527;52.124;5.196;2023-09-08T05:03:48;6.03;;;5.32;;
20731;SDS011;10527;52.124;5.196;2023-09-08T05:06:18;7.65;;;5.90;;
20731;SDS011;10527;52.124;5.196;2023-09-08T05:08:44;5.90;;;5.30;;
20731;SDS011;10527;52.124;5.196;2023-09-08T05:11:14;8.95;;;5.90;;
20731;SDS011;10527;52.124;5.196;2023-09-08T05:13:42;7.85;;;6.10;;
20731;SDS011;10527;52.124;5.196;2023-09-08T05:16:08;6.93;;;5.40;;
20731;SDS011;10527;52.124;5.196;2023-09-08T05:18:38;6.95;;;5.60;;
20731;SDS011;10527;52.124;5.196;2023-09-08T05:21:07;8.52;;;6.15;;
20731;SDS011;10527;52.124;5.196;2023-09-08T05:23:34;7.90;;;5.97;;
20731;SDS011;10527;52.124;5.196;2023-09-08T05:26:00;6.57;;;5.45;;
20731;SDS011;10527;52.124;5.196;2023-09-08T05:28:30;7.95;;;6.00;;
20731;SDS011;10527;52.124;5.196;2023-09-08T05:30:57;6.07;;;5.40;;
20731;SDS011;10527;52.124;5.196;2023-09-08T05:33:26;10.70;;;6.32;;
20731;SDS011;10527;52.124;5.196;2023-09-08T05:35:53;9.75;;;5.43;;
20731;SDS011;10527;52.124;5.196;2023-09-08T05:38:20;8.70;;;5.68;;
20731;SDS011;10527;52.124;5.196;2023-09-08T05:40:46;6.57;;;5.82;;
20731;SDS011;10527;52.124;5.196;2023-09-08T05:43:13;10.77;;;6.40;;
20731;SDS011;10527;52.124;5.196;2023-09-08T05:45:43;7.80;;;5.90;;
20731;SDS011;10527;52.124;5.196;2023-09-08T05:48:10;8.05;;;6.38;;
20731;SDS011;10527;52.124;5.196;2023-09-08T05:50:37;6.57;;;5.95;;
20731;SDS011;10527;52.124;5.196;2023-09-08T05:53:04;9.73;;;6.32;;
20731;SDS011;10527;52.124;5.196;2023-09-08T05:55:31;7.43;;;6.50;;
20731;SDS011;10527;52.124;5.196;2023-09-08T05:58:00;7.97;;;6.18;;
20731;SDS011;10527;52.124;5.196;2023-09-08T06:00:27;7.25;;;5.88;;
20731;SDS011;10527;52.124;5.196;2023-09-08T06:02:56;7.40;;;6.60;;
20731;SDS011;10527;52.124;5.196;2023-09-08T06:05:23;7.20;;;6.18;;
20731;SDS011;10527;52.124;5.196;2023-09-08T06:07:53;7.57;;;6.18;;
20731;SDS011;10527;52.124;5.196;2023-09-08T06:10:33;7.50;;;6.70;;
20731;SDS011;10527;52.124;5.196;2023-09-08T06:13:03;8.45;;;6.55;;
20731;SDS011;10527;52.124;5.196;2023-09-08T06:15:30;8.48;;;7.10;;
20731;SDS011;10527;52.124;5.196;2023-09-08T06:17:58;8.40;;;6.18;;
20731;SDS011;10527;52.124;5.196;2023-09-08T06:20:24;7.82;;;6.38;;
20731;SDS011;10527;52.124;5.196;2023-09-08T06:22:53;8.07;;;6.72;;
20731;SDS011;10527;52.124;5.196;2023-09-08T06:25:20;8.13;;;6.35;;
20731;SDS011;10527;52.124;5.196;2023-09-08T06:27:46;9.00;;;6.90;;
20731;SDS011;10527;52.124;5.196;2023-09-08T06:30:13;8.77;;;6.55;;
20731;SDS011;10527;52.124;5.196;2023-09-08T06:32:42;10.07;;;7.85;;
20731;SDS011;10527;52.124;5.196;2023-09-08T06:35:09;9.75;;;7.13;;
20731;SDS011;10527;52.124;5.196;2023-09-08T06:37:37;12.13;;;7.95;;
20731;SDS011;10527;52.124;5.196;2023-09-08T06:40:05;9.50;;;8.20;;
20731;SDS011;10527;52.124;5.196;2023-09-08T06:42:33;8.65;;;7.70;;
20731;SDS011;10527;52.124;5.196;2023-09-08T06:45:00;7.82;;;6.97;;
20731;SDS011;10527;52.124;5.196;2023-09-08T06:47:27;8.68;;;7.70;;
20731;SDS011;10527;52.124;5.196;2023-09-08T06:49:54;9.30;;;7.93;;
20731;SDS011;10527;52.124;5.196;2023-09-08T06:52:21;10.00;;;8.35;;
20731;SDS011;10527;52.124;5.196;2023-09-08T06:54:48;8.80;;;7.20;;
20731;SDS011;10527;52.124;5.196;2023-09-08T06:57:17;9.27;;;7.93;;
20731;SDS011;10527;52.124;5.196;2023-09-08T06:59:45;11.13;;;7.80;;
20731;SDS011;10527;52.124;5.196;2023-09-08T07:02:13;9.20;;;7.85;;
20731;SDS011;10527;52.124;5.196;2023-09-08T07:04:40;11.65;;;8.05;;
20731;SDS011;10527;52.124;5.196;2023-09-08T07:07:08;8.00;;;7.20;;
20731;SDS011;10527;52.124;5.196;2023-09-08T07:09:37;10.70;;;7.90;;
20731;SDS011;10527;52.124;5.196;2023-09-08T07:12:04;9.30;;;7.20;;
20731;SDS011;10527;52.124;5.196;2023-09-08T07:14:32;7.80;;;7.00;;
20731;SDS011;10527;52.124;5.196;2023-09-08T07:17:02;8.75;;;7.80;;
20731;SDS011;10527;52.124;5.196;2023-09-08T07:19:29;11.35;;;7.55;;
20731;SDS011;10527;52.124;5.196;2023-09-08T07:21:56;8.95;;;7.97;;
20731;SDS011;10527;52.124;5.196;2023-09-08T07:24:23;9.80;;;8.00;;
20731;SDS011;10527;52.124;5.196;2023-09-08T07:26:50;11.02;;;8.20;;
20731;SDS011;10527;52.124;5.196;2023-09-08T07:29:17;8.93;;;7.88;;
20731;SDS011;10527;52.124;5.196;2023-09-08T07:31:44;9.95;;;7.57;;
20731;SDS011;10527;52.124;5.196;2023-09-08T07:34:11;9.90;;;7.03;;
20731;SDS011;10527;52.124;5.196;2023-09-08T07:36:38;8.52;;;7.45;;
20731;SDS011;10527;52.124;5.196;2023-09-08T07:39:05;10.70;;;7.28;;
20731;SDS011;10527;52.124;5.196;2023-09-08T07:41:34;12.07;;;8.55;;
20731;SDS011;10527;52.124;5.196;2023-09-08T07:44:05;10.52;;;7.18;;
20731;SDS011;10527;52.124;5.196;2023-09-08T07:46:33;8.88;;;7.55;;
20731;SDS011;10527;52.124;5.196;2023-09-08T07:49:00;8.65;;;7.15;;
20731;SDS011;10527;52.124;5.196;2023-09-08T07:51:34;9.82;;;8.02;;
20731;SDS011;10527;52.124;5.196;2023-09-08T07:54:01;9.80;;;7.72;;
20731;SDS011;10527;52.124;5.196;2023-09-08T07:56:30;9.13;;;7.28;;
20731;SDS011;10527;52.124;5.196;2023-09-08T07:58:57;7.78;;;6.82;;
20731;SDS011;10527;52.124;5.196;2023-09-08T08:01:24;7.93;;;7.05;;
20731;SDS011;10527;52.124;5.196;2023-09-08T08:03:51;13.27;;;7.43;;
20731;SDS011;10527;52.124;5.196;2023-09-08T08:06:18;8.50;;;7.35;;
20731;SDS011;10527;52.124;5.196;2023-09-08T08:08:45;8.43;;;7.03;;
20731;SDS011;10527;52.124;5.196;2023-09-08T08:11:12;7.75;;;6.78;;
20731;SDS011;10527;52.124;5.196;2023-09-08T08:13:42;7.15;;;6.05;;
20731;SDS011;10527;52.124;5.196;2023-09-08T08:16:09;9.10;;;5.80;;
20731;SDS011;10527;52.124;5.196;2023-09-08T08:18:36;8.38;;;5.50;;
20731;SDS011;10527;52.124;5.196;2023-09-08T08:21:04;10.05;;;5.43;;
20731;SDS011;10527;52.124;5.196;2023-09-08T08:23:31;5.45;;;4.80;;
20731;SDS011;10527;52.124;5.196;2023-09-08T08:26:02;6.72;;;5.50;;
20731;SDS011;10527;52.124;5.196;2023-09-08T08:28:29;5.35;;;4.45;;
20731;SDS011;10527;52.124;5.196;2023-09-08T08:30:56;6.05;;;5.38;;
20731;SDS011;10527;52.124;5.196;2023-09-08T08:33:24;5.88;;;5.28;;
20731;SDS011;10527;52.124;5.196;2023-09-08T08:35:55;7.82;;;4.85;;
20731;SDS011;10527;52.124;5.196;2023-09-08T08:38:25;6.50;;;4.75;;
20731;SDS011;10527;52.124;5.196;2023-09-08T08:40:51;5.43;;;4.75;;
20731;SDS011;10527;52.124;5.196;2023-09-08T08:43:18;6.80;;;4.95;;
20731;SDS011;10527;52.124;5.196;2023-09-08T08:45:48;8.93;;;5.22;;
20731;SDS011;10527;52.124;5.196;2023-09-08T08:48:18;5.20;;;4.00;;
20731;SDS011;10527;52.124;5.196;2023-09-08T08:50:48;5.70;;;4.72;;
20731;SDS011;10527;52.124;5.196;2023-09-08T08:53:17;7.10;;;4.57;;
20731;SDS011;10527;52.124;5.196;2023-09-08T08:55:46;6.35;;;4.78;;
20731;SDS011;10527;52.124;5.196;2023-09-08T08:58:17;6.07;;;4.90;;
20731;SDS011;10527;52.124;5.196;2023-09-08T09:00:51;5.63;;;4.95;;
20731;SDS011;10527;52.124;5.196;2023-09-08T09:03:28;5.45;;;4.93;;
20731;SDS011;10527;52.124;5.196;2023-09-08T09:05:57;6.70;;;4.78;;
20731;SDS011;10527;52.124;5.196;2023-09-08T09:08:25;6.82;;;4.55;;
20731;SDS011;10527;52.124;5.196;2023-09-08T09:10:55;7.43;;;4.47;;
20731;SDS011;10527;52.124;5.196;2023-09-08T09:13:22;4.47;;;3.72;;
20731;SDS011;10527;52.124;5.196;2023-09-08T09:15:49;8.55;;;4.40;;
20731;SDS011;10527;52.124;5.196;2023-09-08T09:18:20;4.22;;;3.83;;
20731;SDS011;10527;52.124;5.196;2023-09-08T09:20:53;7.05;;;5.53;;
20731;SDS011;10527;52.124;5.196;2023-09-08T09:23:30;5.55;;;5.03;;
20731;SDS011;10527;52.124;5.196;2023-09-08T09:26:01;6.25;;;5.22;;
20731;SDS011;10527;52.124;5.196;2023-09-08T09:28:33;10.75;;;5.80;;
20731;SDS011;10527;52.124;5.196;2023-09-08T09:31:00;6.15;;;5.20;;
20731;SDS011;10527;52.124;5.196;2023-09-08T09:33:27;5.60;;;5.00;;
20731;SDS011;10527;52.124;5.196;2023-09-08T09:35:56;8.70;;;5.55;;
20731;SDS011;10527;52.124;5.196;2023-09-08T09:38:26;7.03;;;5.30;;
20731;SDS011;10527;52.124;5.196;2023-09-08T09:40:54;6.13;;;5.05;;
20731;SDS011;10527;52.124;5.196;2023-09-08T09:43:21;6.00;;;4.68;;
20731;SDS011;10527;52.124;5.196;2023-09-08T09:45:51;5.22;;;4.32;;
20731;SDS011;10527;52.124;5.196;2023-09-08T09:48:20;4.88;;;4.13;;
20731;SDS011;10527;52.124;5.196;2023-09-08T09:50:50;6.85;;;4.80;;
20731;SDS011;10527;52.124;5.196;2023-09-08T09:53:17;7.85;;;4.47;;
20731;SDS011;10527;52.124;5.196;2023-09-08T09:55:46;5.97;;;4.25;;
20731;SDS011;10527;52.124;5.196;2023-09-08T09:58:13;5.38;;;4.45;;
20731;SDS011;10527;52.124;5.196;2023-09-08T10:00:41;6.13;;;5.15;;
20731;SDS011;10527;52.124;5.196;2023-09-08T10:03:14;5.07;;;4.47;;
20731;SDS011;10527;52.124;5.196;2023-09-08T10:05:41;6.63;;;5.95;;
20731;SDS011;10527;52.124;5.196;2023-09-08T10:08:08;6.15;;;5.32;;
20731;SDS011;10527;52.124;5.196;2023-09-08T10:10:35;5.90;;;4.82;;
20731;SDS011;10527;52.124;5.196;2023-09-08T10:13:05;7.25;;;4.90;;
20731;SDS011;10527;52.124;5.196;2023-09-08T10:15:36;5.70;;;5.10;;
20731;SDS011;10527;52.124;5.196;2023-09-08T10:18:07;5.80;;;4.60;;
20731;SDS011;10527;52.124;5.196;2023-09-08T10:20:41;6.53;;;4.82;;
20731;SDS011;10527;52.124;5.196;2023-09-08T10:23:12;6.75;;;5.47;;
20731;SDS011;10527;52.124;5.196;2023-09-08T10:25:50;5.47;;;4.75;;
20731;SDS011;10527;52.124;5.196;2023-09-08T10:28:26;7.07;;;5.28;;
20731;SDS011;10527;52.124;5.196;2023-09-08T10:30:54;5.45;;;4.75;;
20731;SDS011;10527;52.124;5.196;2023-09-08T10:33:22;5.85;;;4.68;;
20731;SDS011;10527;52.124;5.196;2023-09-08T10:35:50;6.93;;;4.30;;
20731;SDS011;10527;52.124;5.196;2023-09-08T10:38:29;6.22;;;4.13;;
20731;SDS011;10527;52.124;5.196;2023-09-08T10:43:43;5.30;;;3.95;;
20731;SDS011;10527;52.124;5.196;2023-09-08T10:46:27;7.22;;;4.63;;
20731;SDS011;10527;52.124;5.196;2023-09-08T10:49:01;5.55;;;4.22;;
20731;SDS011;10527;52.124;5.196;2023-09-08T10:51:30;5.60;;;4.35;;
20731;SDS011;10527;52.124;5.196;2023-09-08T10:53:57;4.95;;;4.45;;
20731;SDS011;10527;52.124;5.196;2023-09-08T11:00:08;6.57;;;4.97;;
20731;SDS011;10527;52.124;5.196;2023-09-08T11:02:39;5.85;;;4.68;;
20731;SDS011;10527;52.124;5.196;2023-09-08T11:05:10;6.25;;;4.80;;
20731;SDS011;10527;52.124;5.196;2023-09-08T11:07:43;7.90;;;5.20;;
20731;SDS011;10527;52.124;5.196;2023-09-08T11:10:11;6.47;;;4.38;;
20731;SDS011;10527;52.124;5.196;2023-09-08T11:12:39;7.47;;;5.32;;
20731;SDS011;10527;52.124;5.196;2023-09-08T11:15:07;5.47;;;4.55;;
20731;SDS011;10527;52.124;5.196;2023-09-08T11:17:38;4.90;;;4.40;;
20731;SDS011;10527;52.124;5.196;2023-09-08T11:20:09;4.38;;;3.95;;
20731;SDS011;10527;52.124;5.196;2023-09-08T11:22:38;5.22;;;4.60;;
20731;SDS011;10527;52.124;5.196;2023-09-08T11:25:06;7.43;;;4.15;;
20731;SDS011;10527;52.124;5.196;2023-09-08T11:27:36;8.10;;;4.20;;
20731;SDS011;10527;52.124;5.196;2023-09-08T11:30:08;5.47;;;3.67;;
20731;SDS011;10527;52.124;5.196;2023-09-08T11:32:35;5.80;;;4.05;;
20731;SDS011;10527;52.124;5.196;2023-09-08T11:35:06;5.70;;;4.25;;
20731;SDS011;10527;52.124;5.196;2023-09-08T11:37:36;4.72;;;3.92;;
20731;SDS011;10527;52.124;5.196;2023-09-08T11:40:08;8.10;;;4.32;;
20731;SDS011;10527;52.124;5.196;2023-09-08T11:42:47;7.60;;;5.05;;
20731;SDS011;10527;52.124;5.196;2023-09-08T11:45:15;4.90;;;4.15;;
20731;SDS011;10527;52.124;5.196;2023-09-08T11:47:46;6.90;;;4.82;;
20731;SDS011;10527;52.124;5.196;2023-09-08T11:50:18;8.98;;;4.60;;
20731;SDS011;10527;52.124;5.196;2023-09-08T11:52:47;10.25;;;4.88;;
20731;SDS011;10527;52.124;5.196;2023-09-08T11:55:15;5.78;;;4.45;;
20731;SDS011;10527;52.124;5.196;2023-09-08T11:57:48;5.03;;;4.45;;
20731;SDS011;10527;52.124;5.196;2023-09-08T12:00:26;5.97;;;3.45;;
20731;SDS011;10527;52.124;5.196;2023-09-08T12:02:55;5.13;;;4.35;;
20731;SDS011;10527;52.124;5.196;2023-09-08T12:05:36;4.72;;;4.22;;
20731;SDS011;10527;52.124;5.196;2023-09-08T12:08:04;7.75;;;5.55;;
20731;SDS011;10527;52.124;5.196;2023-09-08T12:10:37;5.38;;;4.82;;
20731;SDS011;10527;52.124;5.196;2023-09-08T12:13:08;5.25;;;4.05;;
20731;SDS011;10527;52.124;5.196;2023-09-08T12:15:37;5.90;;;4.72;;
20731;SDS011;10527;52.124;5.196;2023-09-08T12:18:10;6.28;;;5.20;;
20731;SDS011;10527;52.124;5.196;2023-09-08T12:20:41;5.90;;;4.03;;
20731;SDS011;10527;52.124;5.196;2023-09-08T12:23:17;5.10;;;4.60;;
20731;SDS011;10527;52.124;5.196;2023-09-08T12:25:49;15.48;;;5.60;;
20731;SDS011;10527;52.124;5.196;2023-09-08T12:28:22;6.45;;;4.65;;
20731;SDS011;10527;52.124;5.196;2023-09-08T12:30:52;5.70;;;4.30;;
20731;SDS011;10527;52.124;5.196;2023-09-08T12:33:20;5.70;;;3.95;;
20731;SDS011;10527;52.124;5.196;2023-09-08T12:35:48;8.27;;;4.00;;
20731;SDS011;10527;52.124;5.196;2023-09-08T12:38:17;4.55;;;3.92;;
20731;SDS011;10527;52.124;5.196;2023-09-08T12:40:57;5.63;;;4.07;;
20731;SDS011;10527;52.124;5.196;2023-09-08T12:43:23;4.55;;;3.97;;
20731;SDS011;10527;52.124;5.196;2023-09-08T12:45:54;3.67;;;3.38;;
20731;SDS011;10527;52.124;5.196;2023-09-08T12:48:23;5.82;;;4.45;;
20731;SDS011;10527;52.124;5.196;2023-09-08T12:50:51;4.68;;;3.83;;
20731;SDS011;10527;52.124;5.196;2023-09-08T12:53:18;8.07;;;4.18;;
20731;SDS011;10527;52.124;5.196;2023-09-08T12:55:46;4.43;;;3.55;;
20731;SDS011;10527;52.124;5.196;2023-09-08T12:58:14;12.65;;;5.53;;
20731;SDS011;10527;52.124;5.196;2023-09-08T13:00:42;5.40;;;4.25;;
20731;SDS011;10527;52.124;5.196;2023-09-08T13:03:10;5.30;;;4.43;;
20731;SDS011;10527;52.124;5.196;2023-09-08T13:05:37;7.05;;;4.10;;
20731;SDS011;10527;52.124;5.196;2023-09-08T13:08:06;5.70;;;4.38;;
20731;SDS011;10527;52.124;5.196;2023-09-08T13:10:33;5.22;;;4.03;;
20731;SDS011;10527;52.124;5.196;2023-09-08T13:13:00;4.05;;;3.67;;
20731;SDS011;10527;52.124;5.196;2023-09-08T13:15:28;6.82;;;4.43;;
20731;SDS011;10527;52.124;5.196;2023-09-08T13:17:55;5.65;;;3.80;;
20731;SDS011;10527;52.124;5.196;2023-09-08T13:20:22;4.00;;;3.60;;
20731;SDS011;10527;52.124;5.196;2023-09-08T13:22:49;5.85;;;4.22;;
20731;SDS011;10527;52.124;5.196;2023-09-08T13:25:16;4.72;;;3.55;;
20731;SDS011;10527;52.124;5.196;2023-09-08T13:27:43;5.97;;;3.67;;
20731;SDS011;10527;52.124;5.196;2023-09-08T13:30:13;4.00;;;3.08;;
20731;SDS011;10527;52.124;5.196;2023-09-08T13:32:42;4.00;;;3.33;;
20731;SDS011;10527;52.124;5.196;2023-09-08T13:35:12;5.28;;;3.22;;
20731;SDS011;10527;52.124;5.196;2023-09-08T13:37:39;4.95;;;3.28;;
20731;SDS011;10527;52.124;5.196;2023-09-08T13:40:06;3.67;;;3.28;;
20731;SDS011;10527;52.124;5.196;2023-09-08T13:42:35;3.45;;;3.08;;
20731;SDS011;10527;52.124;5.196;2023-09-08T13:45:03;3.30;;;3.00;;
20731;SDS011;10527;52.124;5.196;2023-09-08T13:47:31;3.30;;;2.95;;
20731;SDS011;10527;52.124;5.196;2023-09-08T13:49:59;3.88;;;3.30;;
20731;SDS011;10527;52.124;5.196;2023-09-08T13:52:35;3.65;;;2.75;;
20731;SDS011;10527;52.124;5.196;2023-09-08T13:55:04;3.75;;;2.90;;
20731;SDS011;10527;52.124;5.196;2023-09-08T13:57:36;3.47;;;3.17;;
20731;SDS011;10527;52.124;5.196;2023-09-08T14:00:07;3.75;;;2.70;;
20731;SDS011;10527;52.124;5.196;2023-09-08T14:02:45;3.45;;;2.67;;
20731;SDS011;10527;52.124;5.196;2023-09-08T14:05:17;5.15;;;2.92;;
20731;SDS011;10527;52.124;5.196;2023-09-08T14:07:56;3.03;;;2.70;;
20731;SDS011;10527;52.124;5.196;2023-09-08T14:10:33;2.92;;;2.65;;
20731;SDS011;10527;52.124;5.196;2023-09-08T14:13:03;3.40;;;2.55;;
20731;SDS011;10527;52.124;5.196;2023-09-08T14:15:37;3.47;;;2.72;;
20731;SDS011;10527;52.124;5.196;2023-09-08T14:18:07;4.20;;;2.90;;
20731;SDS011;10527;52.124;5.196;2023-09-08T14:20:36;3.78;;;2.88;;
20731;SDS011;10527;52.124;5.196;2023-09-08T14:23:03;6.55;;;3.30;;
20731;SDS011;10527;52.124;5.196;2023-09-08T14:25:35;4.85;;;2.92;;
20731;SDS011;10527;52.124;5.196;2023-09-08T14:28:02;4.20;;;2.90;;
20731;SDS011;10527;52.124;5.196;2023-09-08T14:30:32;4.43;;;3.25;;
20731;SDS011;10527;52.124;5.196;2023-09-08T14:33:03;4.85;;;3.17;;
20731;SDS011;10527;52.124;5.196;2023-09-08T14:35:32;5.35;;;3.28;;
20731;SDS011;10527;52.124;5.196;2023-09-08T14:38:01;3.97;;;3.15;;
20731;SDS011;10527;52.124;5.196;2023-09-08T14:40:27;5.80;;;3.03;;
20731;SDS011;10527;52.124;5.196;2023-09-08T14:42:54;3.55;;;3.10;;
20731;SDS011;10527;52.124;5.196;2023-09-08T14:45:21;2.95;;;2.65;;
20731;SDS011;10527;52.124;5.196;2023-09-08T14:47:48;6.50;;;3.30;;
20731;SDS011;10527;52.124;5.196;2023-09-08T14:50:15;5.45;;;3.03;;
20731;SDS011;10527;52.124;5.196;2023-09-08T14:52:45;4.45;;;3.60;;
20731;SDS011;10527;52.124;5.196;2023-09-08T14:55:12;4.80;;;2.95;;
20731;SDS011;10527;52.124;5.196;2023-09-08T14:57:39;4.80;;;3.45;;
20731;SDS011;10527;52.124;5.196;2023-09-08T15:00:08;3.33;;;3.03;;
20731;SDS011;10527;52.124;5.196;2023-09-08T15:02:36;3.72;;;3.15;;
20731;SDS011;10527;52.124;5.196;2023-09-08T15:05:03;4.88;;;3.58;;
20731;SDS011;10527;52.124;5.196;2023-09-08T15:07:31;3.90;;;3.25;;
20731;SDS011;10527;52.124;5.196;2023-09-08T15:09:58;6.72;;;3.70;;